createdAt,value
2023-05-20T00:00:30.060Z,102312.44
2023-05-20T00:01:31.537Z,102312.38
2023-05-20T00:02:33.673Z,102308.69
2023-05-20T00:03:35.281Z,102315.97
2023-05-20T00:04:37.049Z,102319.63
2023-05-20T00:05:38.592Z,102310.50
2023-05-20T00:06:40.229Z,102325.94
2023-05-20T00:07:41.853Z,102318.69
2023-05-20T00:08:43.416Z,102315.97
2023-05-20T00:09:45.294Z,102314.13
2023-05-20T00:10:47.035Z,102305.94
2023-05-20T00:11:48.578Z,102306.81
2023-05-20T00:12:50.055Z,102310.50
2023-05-20T00:13:51.639Z,102307.81
2023-05-20T00:14:53.927Z,102314.16
2023-05-20T00:15:57.370Z,102308.66
2023-05-20T00:16:58.916Z,102314.13
2023-05-20T00:18:04.368Z,102306.78
2023-05-20T00:19:05.949Z,102311.28
2023-05-20T00:20:08.428Z,102305.84
2023-05-20T00:21:09.899Z,102306.81
2023-05-20T00:22:11.373Z,102309.53
2023-05-20T00:23:12.884Z,102308.63
2023-05-20T00:24:14.330Z,102299.50
2023-05-20T00:25:16.292Z,102309.53
2023-05-20T00:26:17.917Z,102313.13
2023-05-20T00:27:19.385Z,102315.81
2023-05-20T00:28:21.648Z,102311.28
2023-05-20T00:29:23.193Z,102315.78
2023-05-20T00:30:24.649Z,102305.81
2023-05-20T00:31:26.171Z,102317.59
2023-05-20T00:32:27.741Z,102321.19
2023-05-20T00:33:29.268Z,102309.34
2023-05-20T00:34:30.837Z,102313.00
2023-05-20T00:35:32.591Z,102312.06
2023-05-20T00:36:35.449Z,102315.72
2023-05-20T00:37:36.904Z,102311.25
2023-05-20T00:38:38.368Z,102314.88
2023-05-20T00:39:39.798Z,102312.16
2023-05-20T00:40:41.268Z,102313.06
2023-05-20T00:41:42.710Z,102310.28
2023-05-20T00:42:44.135Z,102312.06
2023-05-20T00:43:45.581Z,102315.72
2023-05-20T00:44:47.040Z,102321.09
2023-05-20T00:45:48.676Z,102317.50
2023-05-20T00:46:54.034Z,102320.19
2023-05-20T00:47:59.523Z,102313.84
2023-05-20T00:49:01.688Z,102322.91
2023-05-20T00:50:03.511Z,102312.97
2023-05-20T00:51:05.120Z,102313.88
2023-05-20T00:52:07.897Z,102307.50
2023-05-20T00:53:09.969Z,102309.34
2023-05-20T00:54:11.735Z,102311.19
2023-05-20T00:55:13.244Z,102312.97
2023-05-20T00:56:14.866Z,102305.69
2023-05-20T00:57:17.160Z,102317.47
2023-05-20T00:58:18.660Z,102310.19
2023-05-20T00:59:20.235Z,102316.50
2023-05-20T01:00:21.734Z,102317.41
2023-05-20T01:01:23.372Z,102321.94
2023-05-20T01:02:25.356Z,102316.56
2023-05-20T01:03:27.507Z,102323.78
2023-05-20T01:04:31.389Z,102314.69
2023-05-20T01:05:33.422Z,102308.47
2023-05-20T01:06:35.187Z,102310.25
2023-05-20T01:07:36.883Z,102307.53
2023-05-20T01:08:38.531Z,102305.66
2023-05-20T01:09:40.069Z,102297.47
2023-05-20T01:10:46.568Z,102302.00
2023-05-20T01:11:52.979Z,102313.78
2023-05-20T01:12:58.179Z,102311.00
2023-05-20T01:14:06.490Z,102309.34
2023-05-20T01:15:16.185Z,102299.31
2023-05-20T01:16:18.545Z,102295.72
2023-05-20T01:17:21.034Z,102299.31
2023-05-20T01:18:25.607Z,102293.84
2023-05-20T01:19:42.056Z,102291.03
2023-05-20T01:20:45.897Z,102301.94
2023-05-20T01:21:49.180Z,102296.44
2023-05-20T01:22:55.171Z,102304.53
2023-05-20T01:23:56.629Z,102300.97
2023-05-20T01:24:59.979Z,102297.38
2023-05-20T01:26:01.500Z,102297.31
2023-05-20T01:27:03.320Z,102295.53
2023-05-20T01:28:05.035Z,102295.47
2023-05-20T01:29:06.533Z,102299.97
2023-05-20T01:30:11.867Z,102300.91
2023-05-20T01:31:23.680Z,102294.56
2023-05-20T01:32:38.971Z,102291.81
2023-05-20T01:33:42.008Z,102298.16
2023-05-20T01:34:45.154Z,102301.78
2023-05-20T01:35:47.800Z,102291.81
2023-05-20T01:36:50.468Z,102300.00
2023-05-20T01:37:53.412Z,102296.41
2023-05-20T01:38:56.007Z,102289.06
2023-05-20T01:39:58.250Z,102287.28
2023-05-20T01:41:02.592Z,102294.59
2023-05-20T01:42:06.178Z,102293.66
2023-05-20T01:43:08.230Z,102291.88
2023-05-20T01:44:09.967Z,102300.97
2023-05-20T01:45:12.164Z,102299.06
2023-05-20T01:46:15.167Z,102300.88
2023-05-20T01:47:16.688Z,102300.03
2023-05-20T01:48:18.223Z,102300.03
2023-05-20T01:49:19.688Z,102281.94
2023-05-20T01:50:23.970Z,102298.25
2023-05-20T01:51:25.544Z,102300.91
2023-05-20T01:52:27.326Z,102293.69
2023-05-20T01:53:29.031Z,102293.66
2023-05-20T01:54:30.694Z,102289.06
2023-05-20T01:55:32.287Z,102291.88
2023-05-20T01:56:34.529Z,102280.09
2023-05-20T01:57:36.305Z,102272.84
2023-05-20T01:58:37.780Z,102281.06
2023-05-20T01:59:39.602Z,102272.03
2023-05-20T02:00:41.087Z,102282.06
2023-05-20T02:01:42.767Z,102282.97
2023-05-20T02:02:44.432Z,102274.75
2023-05-20T02:03:45.982Z,102269.28
2023-05-20T02:04:50.365Z,102283.84
2023-05-20T02:05:51.862Z,102281.16
2023-05-20T02:06:53.521Z,102286.63
2023-05-20T02:07:55.030Z,102282.09
2023-05-20T02:08:56.652Z,102281.19
2023-05-20T02:09:58.243Z,102279.31
2023-05-20T02:10:59.713Z,102283.84
2023-05-20T02:12:01.257Z,102280.25
2023-05-20T02:13:02.731Z,102283.88
2023-05-20T02:14:04.196Z,102278.44
2023-05-20T02:15:06.477Z,102281.22
2023-05-20T02:16:08.021Z,102282.13
2023-05-20T02:17:09.569Z,102276.66
2023-05-20T02:18:12.641Z,102278.53
2023-05-20T02:19:14.304Z,102277.59
2023-05-20T02:20:16.256Z,102277.63
2023-05-20T02:21:17.832Z,102270.38
2023-05-20T02:22:19.286Z,102267.69
2023-05-20T02:23:21.024Z,102264.97
2023-05-20T02:24:22.476Z,102273.13
2023-05-20T02:25:23.922Z,102256.78
2023-05-20T02:26:25.508Z,102272.25
2023-05-20T02:27:26.993Z,102262.28
2023-05-20T02:28:28.511Z,102263.19
2023-05-20T02:29:30.295Z,102266.81
2023-05-20T02:30:31.903Z,102264.97
2023-05-20T02:31:33.606Z,102268.66
2023-05-20T02:32:35.116Z,102263.19
2023-05-20T02:33:36.750Z,102266.81
2023-05-20T02:34:38.175Z,102263.19
2023-05-20T02:35:40.138Z,102260.47
2023-05-20T02:36:42.292Z,102266.84
2023-05-20T02:37:44.913Z,102272.31
2023-05-20T02:38:46.433Z,102265.94
2023-05-20T02:39:47.900Z,102270.50
2023-05-20T02:40:49.373Z,102267.78
2023-05-20T02:41:51.000Z,102281.41
2023-05-20T02:42:52.476Z,102270.50
2023-05-20T02:43:54.235Z,102274.16
2023-05-20T02:44:58.457Z,102279.66
2023-05-20T02:46:00.146Z,102277.81
2023-05-20T02:47:01.664Z,102277.81
2023-05-20T02:48:03.304Z,102284.19
2023-05-20T02:49:04.771Z,102280.53
2023-05-20T02:50:07.068Z,102270.56
2023-05-20T02:51:08.574Z,102279.66
2023-05-20T02:52:10.101Z,102272.38
2023-05-20T02:53:11.604Z,102281.44
2023-05-20T02:54:13.145Z,102278.72
2023-05-20T02:55:14.746Z,102274.19
2023-05-20T02:56:18.315Z,102280.56
2023-05-20T02:57:19.845Z,102277.81
2023-05-20T02:58:26.220Z,102267.81
2023-05-20T02:59:27.731Z,102282.38
2023-05-20T03:00:31.283Z,102279.66
2023-05-20T03:01:35.420Z,102275.09
2023-05-20T03:02:37.132Z,102285.13
2023-05-20T03:03:38.620Z,102283.31
2023-05-20T03:04:41.002Z,102286.03
2023-05-20T03:05:46.021Z,102283.34
2023-05-20T03:06:47.731Z,102279.69
2023-05-20T03:07:50.049Z,102286.06
2023-05-20T03:08:51.554Z,102288.78
2023-05-20T03:09:53.016Z,102290.59
2023-05-20T03:10:54.458Z,102287.88
2023-05-20T03:11:55.932Z,102291.50
2023-05-20T03:12:57.398Z,102292.41
2023-05-20T03:13:58.893Z,102298.78
2023-05-20T03:15:01.029Z,102291.53
2023-05-20T03:16:02.874Z,102286.09
2023-05-20T03:17:04.532Z,102294.28
2023-05-20T03:18:07.266Z,102294.28
2023-05-20T03:19:08.900Z,102294.28
2023-05-20T03:20:12.544Z,102301.53
2023-05-20T03:21:14.048Z,102299.75
2023-05-20T03:22:15.580Z,102297.00
2023-05-20T03:23:17.082Z,102290.66
2023-05-20T03:24:18.540Z,102288.81
2023-05-20T03:25:20.131Z,102292.47
2023-05-20T03:26:21.795Z,102288.81
2023-05-20T03:27:26.419Z,102289.78
2023-05-20T03:28:27.858Z,102294.31
2023-05-20T03:29:29.390Z,102288.88
2023-05-20T03:30:31.164Z,102297.03
2023-05-20T03:31:32.650Z,102288.88
2023-05-20T03:32:34.184Z,102287.06
2023-05-20T03:33:35.705Z,102296.13
2023-05-20T03:34:38.179Z,102292.50
2023-05-20T03:35:39.632Z,102292.50
2023-05-20T03:36:41.364Z,102287.94
2023-05-20T03:37:43.048Z,102289.75
2023-05-20T03:38:44.493Z,102283.41
2023-05-20T03:39:46.089Z,102287.03
2023-05-20T03:40:47.536Z,102290.72
2023-05-20T03:41:49.019Z,102290.72
2023-05-20T03:42:52.042Z,102286.13
2023-05-20T03:43:53.667Z,102296.22
2023-05-20T03:44:55.250Z,102285.28
2023-05-20T03:45:56.724Z,102284.34
2023-05-20T03:46:58.347Z,102294.38
2023-05-20T03:48:00.116Z,102293.47
2023-05-20T03:49:02.266Z,102285.28
2023-05-20T03:50:03.963Z,102288.97
2023-05-20T03:51:05.412Z,102295.34
2023-05-20T03:52:07.737Z,102291.69
2023-05-20T03:53:09.174Z,102291.69
2023-05-20T03:54:10.876Z,102291.69
2023-05-20T03:55:12.609Z,102285.31
2023-05-20T03:56:14.074Z,102285.34
2023-05-20T03:57:15.826Z,102280.75
2023-05-20T03:58:17.491Z,102294.44
2023-05-20T03:59:19.431Z,102299.88
2023-05-20T04:00:20.926Z,102297.19
2023-05-20T04:01:25.648Z,102294.47
2023-05-20T04:02:27.363Z,102288.97
2023-05-20T04:03:29.109Z,102289.00
2023-05-20T04:04:31.501Z,102299.00
2023-05-20T04:05:33.304Z,102297.16
2023-05-20T04:06:35.949Z,102293.53
2023-05-20T04:07:37.829Z,102289.91
2023-05-20T04:08:39.341Z,102287.19
2023-05-20T04:09:40.988Z,102287.19
2023-05-20T04:10:45.189Z,102279.91
2023-05-20T04:11:46.662Z,102280.78
2023-05-20T04:12:48.113Z,102273.53
2023-05-20T04:13:49.704Z,102274.44
2023-05-20T04:14:52.605Z,102283.56
2023-05-20T04:15:54.380Z,102284.47
2023-05-20T04:16:56.349Z,102281.75
2023-05-20T04:17:58.100Z,102285.38
2023-05-20T04:19:00.978Z,102274.44
2023-05-20T04:20:02.490Z,102270.81
2023-05-20T04:21:04.572Z,102281.75
2023-05-20T04:22:06.225Z,102281.75
2023-05-20T04:23:07.667Z,102282.63
2023-05-20T04:24:09.153Z,102281.75
2023-05-20T04:25:10.957Z,102279.00
2023-05-20T04:26:12.882Z,102286.28
2023-05-20T04:27:14.322Z,102288.13
2023-05-20T04:28:16.394Z,102285.41
2023-05-20T04:29:19.064Z,102287.22
2023-05-20T04:30:22.000Z,102287.25
2023-05-20T04:31:26.818Z,102289.94
2023-05-20T04:32:28.536Z,102289.97
2023-05-20T04:33:33.189Z,102282.66
2023-05-20T04:34:35.143Z,102290.88
2023-05-20T04:35:37.683Z,102284.50
2023-05-20T04:36:39.617Z,102287.22
2023-05-20T04:37:42.202Z,102287.22
2023-05-20T04:38:44.653Z,102289.94
2023-05-20T04:39:48.200Z,102281.75
2023-05-20T04:40:49.668Z,102283.59
2023-05-20T04:41:54.629Z,102288.13
2023-05-20T04:42:58.422Z,102285.41
2023-05-20T04:44:00.516Z,102286.31
2023-05-20T04:45:04.394Z,102283.59
2023-05-20T04:46:09.626Z,102281.75
2023-05-20T04:47:11.965Z,102281.75
2023-05-20T04:48:14.605Z,102276.28
2023-05-20T04:49:16.057Z,102279.03
2023-05-20T04:50:17.521Z,102280.84
2023-05-20T04:51:19.037Z,102286.31
2023-05-20T04:52:20.509Z,102283.56
2023-05-20T04:53:23.314Z,102276.28
2023-05-20T04:54:25.210Z,102279.94
2023-05-20T04:55:27.476Z,102283.59
2023-05-20T04:56:28.980Z,102280.84
2023-05-20T04:57:30.490Z,102285.41
2023-05-20T04:58:33.347Z,102277.22
2023-05-20T04:59:34.852Z,102280.84
2023-05-20T05:00:39.247Z,102285.41
2023-05-20T05:01:40.838Z,102286.31
2023-05-20T05:02:42.462Z,102287.22
2023-05-20T05:03:44.033Z,102278.13
2023-05-20T05:04:45.672Z,102279.94
2023-05-20T05:05:47.169Z,102279.94
2023-05-20T05:06:49.369Z,102279.94
2023-05-20T05:07:50.819Z,102280.88
2023-05-20T05:08:52.262Z,102278.16
2023-05-20T05:09:53.739Z,102269.94
2023-05-20T05:10:55.199Z,102264.50
2023-05-20T05:11:56.645Z,102269.97
2023-05-20T05:12:58.323Z,102272.66
2023-05-20T05:14:00.129Z,102277.22
2023-05-20T05:15:01.591Z,102271.75
2023-05-20T05:16:03.499Z,102269.03
2023-05-20T05:17:04.933Z,102279.94
2023-05-20T05:18:06.408Z,102279.03
2023-05-20T05:19:08.751Z,102279.97
2023-05-20T05:20:10.528Z,102279.94
2023-05-20T05:21:12.028Z,102279.94
2023-05-20T05:22:13.492Z,102279.03
2023-05-20T05:23:14.920Z,102275.41
2023-05-20T05:24:16.484Z,102277.25
2023-05-20T05:25:18.074Z,102279.97
2023-05-20T05:26:19.589Z,102280.84
2023-05-20T05:27:21.073Z,102288.16
2023-05-20T05:28:22.745Z,102278.13
2023-05-20T05:29:24.420Z,102289.06
2023-05-20T05:30:26.121Z,102282.72
2023-05-20T05:31:27.673Z,102281.78
2023-05-20T05:32:29.261Z,102279.03
2023-05-20T05:33:30.912Z,102285.44
2023-05-20T05:34:32.465Z,102286.31
2023-05-20T05:35:34.031Z,102269.94
2023-05-20T05:36:35.803Z,102275.44
2023-05-20T05:37:37.759Z,102269.06
2023-05-20T05:38:39.282Z,102266.31
2023-05-20T05:39:40.742Z,102265.41
2023-05-20T05:40:42.292Z,102262.66
2023-05-20T05:41:43.807Z,102267.19
2023-05-20T05:42:45.452Z,102267.22
2023-05-20T05:43:46.874Z,102271.75
2023-05-20T05:44:48.999Z,102270.81
2023-05-20T05:45:50.596Z,102263.53
2023-05-20T05:46:52.117Z,102267.19
2023-05-20T05:47:54.591Z,102261.72
2023-05-20T05:48:56.121Z,102258.06
2023-05-20T05:49:57.786Z,102265.34
2023-05-20T05:50:59.269Z,102262.63
2023-05-20T05:52:00.779Z,102255.31
2023-05-20T05:53:02.204Z,102257.16
2023-05-20T05:54:03.683Z,102264.44
2023-05-20T05:55:05.727Z,102256.22
2023-05-20T05:56:07.515Z,102264.38
2023-05-20T05:57:09.911Z,102256.19
2023-05-20T05:58:11.399Z,102256.22
2023-05-20T05:59:13.075Z,102264.41
2023-05-20T06:00:15.078Z,102260.75
2023-05-20T06:01:16.612Z,102258.94
2023-05-20T06:02:18.182Z,102267.16
2023-05-20T06:03:19.773Z,102258.00
2023-05-20T06:04:21.500Z,102254.34
2023-05-20T06:05:22.985Z,102258.00
2023-05-20T06:06:24.490Z,102253.47
2023-05-20T06:07:25.977Z,102254.34
2023-05-20T06:08:27.578Z,102248.88
2023-05-20T06:09:29.539Z,102251.63
2023-05-20T06:10:30.935Z,102247.06
2023-05-20T06:11:32.427Z,102246.16
2023-05-20T06:12:33.869Z,102246.16
2023-05-20T06:13:36.228Z,102247.91
2023-05-20T06:14:37.765Z,102246.09
2023-05-20T06:15:40.546Z,102247.00
2023-05-20T06:16:42.035Z,102238.75
2023-05-20T06:17:44.257Z,102244.19
2023-05-20T06:18:46.635Z,102246.09
2023-05-20T06:19:48.129Z,102240.56
2023-05-20T06:20:56.628Z,102238.72
2023-05-20T06:21:58.809Z,102247.91
2023-05-20T06:23:00.390Z,102246.03
2023-05-20T06:24:01.910Z,102245.09
2023-05-20T06:25:03.777Z,102247.81
2023-05-20T06:26:05.151Z,102245.06
2023-05-20T06:27:06.604Z,102241.38
2023-05-20T06:28:08.291Z,102246.91
2023-05-20T06:29:09.760Z,102244.22
2023-05-20T06:30:11.892Z,102253.31
2023-05-20T06:31:13.517Z,102238.75
2023-05-20T06:32:14.966Z,102243.31
2023-05-20T06:33:17.875Z,102250.56
2023-05-20T06:34:19.326Z,102250.53
2023-05-20T06:35:20.803Z,102247.81
2023-05-20T06:36:22.300Z,102246.94
2023-05-20T06:37:26.608Z,102255.97
2023-05-20T06:38:28.075Z,102256.84
2023-05-20T06:39:29.519Z,102251.34
2023-05-20T06:40:30.991Z,102253.16
2023-05-20T06:41:32.470Z,102257.75
2023-05-20T06:42:33.935Z,102263.16
2023-05-20T06:43:35.501Z,102262.25
2023-05-20T06:44:36.952Z,102256.72
2023-05-20T06:45:38.550Z,102257.63
2023-05-20T06:46:40.114Z,102257.78
2023-05-20T06:47:41.662Z,102259.56
2023-05-20T06:48:43.143Z,102260.47
2023-05-20T06:49:47.429Z,102259.50
2023-05-20T06:50:49.214Z,102258.53
2023-05-20T06:51:50.662Z,102264.88
2023-05-20T06:52:52.160Z,102261.16
2023-05-20T06:53:53.923Z,102259.34
2023-05-20T06:54:55.437Z,102263.78
2023-05-20T06:55:56.949Z,102268.34
2023-05-20T06:56:58.410Z,102270.09
2023-05-20T06:57:59.926Z,102261.91
2023-05-20T06:59:01.424Z,102265.56
2023-05-20T07:00:05.795Z,102267.53
2023-05-20T07:01:07.338Z,102264.72
2023-05-20T07:02:08.920Z,102270.19
2023-05-20T07:03:11.543Z,102262.91
2023-05-20T07:04:13.273Z,102253.88
2023-05-20T07:05:14.845Z,102263.78
2023-05-20T07:06:16.386Z,102269.31
2023-05-20T07:07:18.078Z,102266.63
2023-05-20T07:08:19.586Z,102266.63
2023-05-20T07:09:21.121Z,102269.38
2023-05-20T07:10:22.715Z,102264.91
2023-05-20T07:11:24.170Z,102257.53
2023-05-20T07:12:25.745Z,102260.19
2023-05-20T07:13:27.286Z,102263.84
2023-05-20T07:14:28.963Z,102255.69
2023-05-20T07:15:30.509Z,102255.69
2023-05-20T07:16:34.892Z,102252.00
2023-05-20T07:17:36.904Z,102253.84
2023-05-20T07:18:38.301Z,102253.78
2023-05-20T07:19:39.791Z,102250.06
2023-05-20T07:20:41.347Z,102234.50
2023-05-20T07:21:42.927Z,102238.03
2023-05-20T07:22:44.423Z,102233.53
2023-05-20T07:23:46.191Z,102235.28
2023-05-20T07:24:47.656Z,102236.13
2023-05-20T07:25:49.752Z,102230.66
2023-05-20T07:26:51.452Z,102227.09
2023-05-20T07:27:53.008Z,102227.81
2023-05-20T07:28:54.714Z,102225.09
2023-05-20T07:29:56.399Z,102209.47
2023-05-20T07:30:58.580Z,102222.06
2023-05-20T07:32:00.214Z,102219.38
2023-05-20T07:33:01.855Z,102224.84
2023-05-20T07:34:03.387Z,102217.41
2023-05-20T07:35:05.231Z,102210.84
2023-05-20T07:36:07.999Z,102214.50
2023-05-20T07:37:12.688Z,102216.25
2023-05-20T07:38:14.235Z,102212.53
2023-05-20T07:39:16.100Z,102223.63
2023-05-20T07:40:17.735Z,102217.34
2023-05-20T07:41:19.227Z,102206.25
2023-05-20T07:42:20.742Z,102220.16
2023-05-20T07:43:22.404Z,102213.50
2023-05-20T07:44:24.172Z,102214.53
2023-05-20T07:45:25.759Z,102208.09
2023-05-20T07:46:27.303Z,102214.50
2023-05-20T07:47:28.932Z,102210.69
2023-05-20T07:48:30.459Z,102205.34
2023-05-20T07:49:31.993Z,102209.63
2023-05-20T07:50:34.179Z,102203.94
2023-05-20T07:51:35.751Z,102195.72
2023-05-20T07:52:54.657Z,102201.75
2023-05-20T07:53:57.549Z,102210.59
2023-05-20T07:54:59.049Z,102204.06
2023-05-20T07:56:00.568Z,102209.09
2023-05-20T07:57:02.126Z,102202.66
2023-05-20T07:58:04.159Z,102197.81
2023-05-20T07:59:05.776Z,102203.53
2023-05-20T08:00:09.241Z,102199.78
2023-05-20T08:01:11.590Z,102202.59
2023-05-20T08:02:13.088Z,102200.81
2023-05-20T08:03:14.851Z,102186.91
2023-05-20T08:04:16.415Z,102194.09
2023-05-20T08:05:17.971Z,102206.41
2023-05-20T08:06:24.265Z,102201.88
2023-05-20T08:07:25.737Z,102200.50
2023-05-20T08:08:29.016Z,102209.13
2023-05-20T08:09:31.743Z,102200.97
2023-05-20T08:10:33.279Z,102196.06
2023-05-20T08:11:34.801Z,102196.50
2023-05-20T08:12:36.306Z,102200.38
2023-05-20T08:13:37.866Z,102205.72
2023-05-20T08:14:39.336Z,102200.34
2023-05-20T08:15:41.073Z,102196.69
2023-05-20T08:16:43.352Z,102206.44
2023-05-20T08:17:44.906Z,102195.28
2023-05-20T08:18:46.420Z,102196.81
2023-05-20T08:19:47.865Z,102200.94
2023-05-20T08:20:49.362Z,102197.47
2023-05-20T08:21:50.914Z,102194.72
2023-05-20T08:22:52.662Z,102194.03
2023-05-20T08:23:54.201Z,102193.44
2023-05-20T08:24:55.667Z,102189.44
2023-05-20T08:25:57.646Z,102195.50
2023-05-20T08:26:59.356Z,102187.03
2023-05-20T08:28:06.544Z,102187.88
2023-05-20T08:29:08.360Z,102186.31
2023-05-20T08:30:10.321Z,102183.22
2023-05-20T08:31:11.702Z,102192.59
2023-05-20T08:32:13.268Z,102173.22
2023-05-20T08:33:15.601Z,102170.47
2023-05-20T08:34:17.016Z,102171.56
2023-05-20T08:35:18.467Z,102182.31
2023-05-20T08:36:19.950Z,102164.00
2023-05-20T08:37:21.453Z,102165.91
2023-05-20T08:38:22.928Z,102166.75
2023-05-20T08:39:25.564Z,102174.91
2023-05-20T08:40:27.507Z,102165.72
2023-05-20T08:41:29.143Z,102170.28
2023-05-20T08:42:30.830Z,102170.28
2023-05-20T08:43:32.634Z,102172.16
2023-05-20T08:44:35.737Z,102171.41
2023-05-20T08:45:38.821Z,102163.25
2023-05-20T08:46:41.436Z,102175.72
2023-05-20T08:47:43.752Z,102171.25
2023-05-20T08:48:45.345Z,102181.59
2023-05-20T08:49:46.855Z,102174.56
2023-05-20T08:50:50.777Z,102167.06
2023-05-20T08:51:52.429Z,102164.00
2023-05-20T08:52:54.406Z,102171.31
2023-05-20T08:53:55.854Z,102167.78
2023-05-20T08:54:58.955Z,102174.34
2023-05-20T08:56:03.722Z,102171.50
2023-05-20T08:57:05.712Z,102172.50
2023-05-20T08:58:07.358Z,102174.31
2023-05-20T08:59:08.999Z,102184.59
2023-05-20T09:00:13.322Z,102169.81
2023-05-20T09:01:14.918Z,102172.31
2023-05-20T09:02:16.482Z,102168.63
2023-05-20T09:03:18.533Z,102173.97
2023-05-20T09:04:20.093Z,102179.75
2023-05-20T09:05:22.741Z,102178.13
2023-05-20T09:06:24.339Z,102188.91
2023-05-20T09:07:29.093Z,102187.16
2023-05-20T09:08:30.960Z,102175.16
2023-05-20T09:09:33.786Z,102174.34
2023-05-20T09:10:36.531Z,102179.91
2023-05-20T09:11:38.205Z,102180.78
2023-05-20T09:12:39.893Z,102176.34
2023-05-20T09:13:41.353Z,102173.66
2023-05-20T09:14:43.295Z,102185.50
2023-05-20T09:15:44.636Z,102175.75
2023-05-20T09:16:46.126Z,102181.13
2023-05-20T09:17:50.017Z,102173.91
2023-05-20T09:18:55.923Z,102174.78
2023-05-20T09:19:57.499Z,102174.78
2023-05-20T09:21:06.774Z,102169.22
2023-05-20T09:22:08.274Z,102169.22
2023-05-20T09:23:10.594Z,102171.41
2023-05-20T09:24:12.067Z,102177.59
2023-05-20T09:25:14.190Z,102165.50
2023-05-20T09:26:18.139Z,102172.69
2023-05-20T09:27:21.041Z,102167.91
2023-05-20T09:28:25.265Z,102157.91
2023-05-20T09:29:27.017Z,102173.47
2023-05-20T09:30:28.636Z,102164.31
2023-05-20T09:31:34.176Z,102157.13
2023-05-20T09:32:35.832Z,102154.03
2023-05-20T09:33:37.351Z,102171.97
2023-05-20T09:34:39.164Z,102159.06
2023-05-20T09:35:41.847Z,102163.56
2023-05-20T09:36:47.485Z,102170.34
2023-05-20T09:37:52.883Z,102168.34
2023-05-20T09:38:57.301Z,102165.88
2023-05-20T09:40:05.799Z,102169.91
2023-05-20T09:41:15.399Z,102165.53
2023-05-20T09:42:26.298Z,102176.09
2023-05-20T09:43:28.541Z,102164.19
2023-05-20T09:44:31.558Z,102176.81
2023-05-20T09:45:33.553Z,102165.06
2023-05-20T09:46:36.756Z,102170.53
2023-05-20T09:47:41.212Z,102177.28
2023-05-20T09:48:44.064Z,102169.81
2023-05-20T09:49:49.797Z,102157.06
2023-05-20T09:50:51.909Z,102166.47
2023-05-20T09:51:53.837Z,102175.56
2023-05-20T09:52:55.779Z,102171.72
2023-05-20T09:53:58.136Z,102165.19
2023-05-20T09:55:02.421Z,102165.19
2023-05-20T09:56:04.394Z,102165.97
2023-05-20T09:57:07.933Z,102161.25
2023-05-20T09:58:10.524Z,102163.94
2023-05-20T09:59:13.923Z,102163.78
2023-05-20T10:00:17.507Z,102155.59
2023-05-20T10:01:19.290Z,102159.22
2023-05-20T10:02:21.157Z,102162.56
2023-05-20T10:03:24.261Z,102158.69
2023-05-20T10:04:27.461Z,102160.31
2023-05-20T10:05:33.522Z,102148.06
2023-05-20T10:06:47.574Z,102148.47
2023-05-20T10:07:49.633Z,102149.38
2023-05-20T10:09:28.777Z,102140.09
2023-05-20T10:11:12.749Z,102138.13
2023-05-20T10:12:53.189Z,102141.38
2023-05-20T10:14:17.209Z,102134.94
2023-05-20T10:15:32.800Z,102140.44
2023-05-20T10:16:56.202Z,102143.00
2023-05-20T10:18:34.821Z,102144.97
2023-05-20T10:19:36.491Z,102142.03
2023-05-20T10:20:48.038Z,102139.66
2023-05-20T10:22:02.164Z,102154.94
2023-05-20T10:23:04.755Z,102141.59
2023-05-20T10:24:10.923Z,102135.69
2023-05-20T10:25:26.501Z,102134.25
2023-05-20T10:26:38.841Z,102139.03
2023-05-20T10:27:47.509Z,102127.72
2023-05-20T10:28:49.159Z,102134.00
2023-05-20T10:29:57.942Z,102131.19
2023-05-20T10:31:00.419Z,102135.56
2023-05-20T10:32:02.634Z,102136.22
2023-05-20T10:33:06.764Z,102125.25
2023-05-20T10:34:15.121Z,102130.41
2023-05-20T10:35:22.135Z,102135.66
2023-05-20T10:36:28.010Z,102117.88
2023-05-20T10:37:33.131Z,102129.50
2023-05-20T10:38:34.659Z,102132.44
2023-05-20T10:39:36.178Z,102120.69
2023-05-20T10:40:38.110Z,102127.94
2023-05-20T10:41:39.729Z,102120.50
2023-05-20T10:42:42.707Z,102116.16
2023-05-20T10:43:44.797Z,102115.59
2023-05-20T10:44:47.838Z,102117.78
2023-05-20T10:45:50.864Z,102122.47
2023-05-20T10:47:21.058Z,102113.75
2023-05-20T10:48:33.585Z,102114.13
2023-05-20T10:49:38.619Z,102115.84
2023-05-20T10:50:40.622Z,102114.88
2023-05-20T10:51:44.695Z,102108.69
2023-05-20T10:52:46.166Z,102124.44
2023-05-20T10:53:47.768Z,102120.28
2023-05-20T10:54:59.791Z,102122.28
2023-05-20T10:56:01.710Z,102115.50
2023-05-20T10:57:07.396Z,102118.09
2023-05-20T10:58:10.056Z,102107.75
2023-05-20T10:59:11.763Z,102105.94
2023-05-20T11:00:13.752Z,102100.59
2023-05-20T11:01:17.007Z,102096.69
2023-05-20T11:02:19.866Z,102099.41
2023-05-20T11:03:25.955Z,102100.50
2023-05-20T11:04:29.240Z,102095.41
2023-05-20T11:05:31.325Z,102098.94
2023-05-20T11:06:33.715Z,102093.22
2023-05-20T11:07:35.179Z,102090.78
2023-05-20T11:08:36.623Z,102090.81
2023-05-20T11:09:38.365Z,102086.16
2023-05-20T11:10:41.452Z,102096.47
2023-05-20T11:11:43.049Z,102087.88
2023-05-20T11:12:44.547Z,102081.97
2023-05-20T11:13:50.178Z,102087.50
2023-05-20T11:14:51.898Z,102077.63
2023-05-20T11:15:53.786Z,102077.81
2023-05-20T11:16:58.802Z,102075.66
2023-05-20T11:18:02.764Z,102075.06
2023-05-20T11:19:04.572Z,102072.53
2023-05-20T11:20:06.729Z,102075.97
2023-05-20T11:21:08.181Z,102074.63
2023-05-20T11:22:09.858Z,102078.53
2023-05-20T11:23:15.369Z,102080.03
2023-05-20T11:24:26.427Z,102083.16
2023-05-20T11:25:28.335Z,102073.03
2023-05-20T11:26:29.893Z,102075.78
2023-05-20T11:27:31.407Z,102070.91
2023-05-20T11:28:35.099Z,102069.69
2023-05-20T11:29:37.807Z,102080.09
2023-05-20T11:30:39.548Z,102074.69
2023-05-20T11:31:41.037Z,102077.63
2023-05-20T11:33:00.677Z,102079.44
2023-05-20T11:34:02.481Z,102066.81
2023-05-20T11:35:04.880Z,102064.25
2023-05-20T11:36:16.214Z,102068.25
2023-05-20T11:37:29.018Z,102069.91
2023-05-20T11:38:30.665Z,102064.59
2023-05-20T11:39:33.095Z,102066.09
2023-05-20T11:40:46.385Z,102068.75
2023-05-20T11:41:51.097Z,102070.03
2023-05-20T11:43:03.123Z,102078.66
2023-05-20T11:44:05.221Z,102063.41
2023-05-20T11:45:07.174Z,102059.50
2023-05-20T11:46:09.904Z,102060.69
2023-05-20T11:47:11.404Z,102058.91
2023-05-20T11:48:15.405Z,102055.91
2023-05-20T11:49:17.338Z,102048.03
2023-05-20T11:50:20.246Z,102053.19
2023-05-20T11:51:27.115Z,102054.84
2023-05-20T11:52:29.459Z,102049.50
2023-05-20T11:53:31.652Z,102045.47
2023-05-20T11:54:35.634Z,102045.03
2023-05-20T11:56:01.242Z,102026.03
2023-05-20T11:57:03.776Z,102034.41
2023-05-20T11:58:06.089Z,102039.06